logo
Search for airport 
image banner adimage banner adimage banner ad
image banner ad

EDOE - Boehlen

Located in Boehlen, Germany

ICAO - EDOE, IATA -

Data provided by Airmate  

General information

Coordinates: N51°12'55" E12°22'4"
Elevation is 430 feet MSL.
Magnetic variation is 3.0000° East
View others Airports in Saxony

Operational data

Special qualification required
Current time UTC:
Current local time:
Weather at : EDDP - Leipzig/Halle ( 25 km )
METAR: EDDP 301950Z AUTO 32004KT 9999 VCSH SCT014 FEW///TCU 14/14 Q1004 RESHRA TEMPO BKN012
TAF: TAF EDDP 301700Z 3018/3118 15005KT 9999 SCT012 BKN030 BECMG 3018/3020 25004KT TEMPO 3018/3021 SHRA BKN012 BKN020TCU PROB30 TEMPO 3018/3021 4000 TSRA SCT009 BKN014CB BECMG 3021/3024 BKN007 TEMPO 3022/3106 3000 BR BKN004 PROB30 TEMPO 3101/3106 0700 FG BKN001 BECMG 3106/3109 33006KT BKN020
View NOTAMs / SUP AIP / TFR affecting this airport [VIEW]
Communications frequencies: [VIEW]

Runways:

RWY identifierQFULength (ft)Width (ft)SurfaceLDA (ft)
0660°3117131GRASS2297
24240°3117131GRASS2461
11113°2625131GRASS2133
29293°2625131GRASS2625

Airport contact information

Address: Boehlen Germany

Satellite view of EDOE